Time;durP1;ratioP1;P1;durP2;ratioP2;P2;SDS_P1;SDS_P2;PMS_P1;PMS_P2;Temp;Humidity;BMP_temperature;BMP_pressure;BME280_temperature;BME280_humidity;BME280_pressure;Samples;Min_cycle;Max_cycle;Signal;HPM_P1;HPM_P2
2023/02/13 00:01:16;;;;;;;31.50;23.10;;;8.50;99.90;;;;;;2617192;54;20633;-74
2023/02/13 00:11:15;;;;;;;25.50;21.30;;;8.50;99.90;;;;;;2617131;54;20406;-74
2023/02/13 00:17:04;;;;;;;32.97;22.13;;;8.40;99.90;;;;;;2617222;54;20402;-74
2023/02/13 00:22:51;;;;;;;25.20;20.80;;;8.40;99.90;;;;;;2617795;54;20375;-74
2023/02/13 00:28:40;;;;;;;30.20;22.00;;;8.40;99.90;;;;;;2617250;54;20873;-74
2023/02/13 00:34:27;;;;;;;28.97;23.13;;;8.40;99.90;;;;;;2617025;54;20154;-74
2023/02/13 00:40:15;;;;;;;29.60;20.70;;;8.30;99.90;;;;;;2617454;54;20207;-73
2023/02/13 00:46:04;;;;;;;24.40;19.20;;;8.50;99.90;;;;;;2617038;54;20419;-73
2023/02/13 00:51:51;;;;;;;24.20;18.07;;;8.50;99.90;;;;;;2617581;54;20830;-75
2023/02/13 00:57:39;;;;;;;22.77;17.80;;;8.50;99.90;;;;;;2617219;54;20153;-74
2023/02/13 01:03:27;;;;;;;19.43;15.50;;;8.40;99.90;;;;;;2617119;54;20898;-75
2023/02/13 01:06:44;;;;;;;15.40;13.67;;;8.50;99.90;;;;;;2616252;46;20454;-75
2023/02/13 01:09:10;;;;;;;18.50;14.10;;;8.60;99.90;;;;;;2617071;54;20403;-75
2023/02/13 01:14:58;;;;;;;16.63;13.27;;;8.60;99.90;;;;;;2617391;54;20418;-74
2023/02/13 01:27:20;;;;;;;14.37;12.63;;;8.60;99.90;;;;;;2617133;54;20407;-75
2023/02/13 01:33:10;;;;;;;14.33;12.83;;;8.60;99.90;;;;;;2617049;54;20154;-73
2023/02/13 01:38:58;;;;;;;15.60;13.40;;;8.50;99.90;;;;;;2616795;54;20548;-73
2023/02/13 01:44:49;;;;;;;16.30;13.93;;;8.50;99.90;;;;;;2617263;54;20914;-73
2023/02/13 01:57:01;;;;;;;15.00;12.80;;;8.50;99.90;;;;;;2616954;54;20418;-73
2023/02/13 02:12:32;;;;;;;12.23;11.07;;;8.40;99.90;;;;;;2615020;54;20516;-72
2023/02/13 02:18:22;;;;;;;11.97;10.70;;;8.40;99.90;;;;;;2614780;54;20441;-72
2023/02/13 02:34:03;;;;;;;15.53;10.53;;;8.40;99.90;;;;;;2615536;39;20819;-74
2023/02/13 02:39:59;;;;;;;11.87;10.30;;;8.30;99.90;;;;;;2616367;54;20390;-73
2023/02/13 02:56:46;;;;;;;12.80;9.60;;;8.20;99.90;;;;;;2615885;54;20407;-73
2023/02/13 03:24:57;;;;;;;9.20;8.30;;;8.00;99.90;;;;;;2616070;54;20423;-73
2023/02/13 03:43:18;;;;;;;9.70;8.03;;;7.90;99.90;;;;;;2615024;54;20389;-71
2023/02/13 04:01:32;;;;;;;9.27;8.33;;;7.80;99.90;;;;;;2614898;54;20960;-70
2023/02/13 04:16:35;;;;;;;10.33;7.50;;;7.70;99.90;;;;;;2614678;54;20406;-71
2023/02/13 04:22:22;;;;;;;8.83;7.93;;;7.70;99.90;;;;;;2614896;54;20410;-71
2023/02/13 04:28:10;;;;;;;8.90;8.00;;;7.70;99.90;;;;;;2614671;54;20139;-70
2023/02/13 04:33:58;;;;;;;9.30;8.30;;;7.70;99.90;;;;;;2615059;54;20157;-70
2023/02/13 04:39:45;;;;;;;9.20;8.30;;;7.60;99.90;;;;;;2615355;54;20218;-70
2023/02/13 04:45:33;;;;;;;9.20;8.30;;;7.60;99.90;;;;;;2615150;54;20118;-72
2023/02/13 04:51:21;;;;;;;8.77;7.83;;;7.70;99.90;;;;;;2615269;54;20113;-70
2023/02/13 04:57:09;;;;;;;9.47;7.57;;;7.60;99.90;;;;;;2615409;54;20174;-70
2023/02/13 05:09:10;;;;;;;10.00;9.00;;;7.70;99.90;;;;;;2615470;54;20374;-71
2023/02/13 05:12:02;;;;;;;11.90;9.27;;;7.70;99.90;;;;;;2615314;54;20412;-71
2023/02/13 05:14:28;;;;;;;10.07;8.97;;;7.70;99.90;;;;;;2615114;54;20182;-70
2023/02/13 05:20:17;;;;;;;14.07;8.70;;;7.60;99.90;;;;;;2615486;54;20146;-70
2023/02/13 05:26:04;;;;;;;10.93;8.60;;;7.70;99.90;;;;;;2615156;54;20459;-70
2023/02/13 05:31:54;;;;;;;10.60;9.40;;;7.60;99.90;;;;;;2615281;54;20208;-70
2023/02/13 05:37:42;;;;;;;11.33;9.33;;;7.60;99.90;;;;;;2615227;54;20917;-71
2023/02/13 05:43:29;;;;;;;10.50;9.40;;;7.70;99.90;;;;;;2615204;54;20122;-71
2023/02/13 05:49:18;;;;;;;15.33;10.53;;;7.60;99.90;;;;;;2615213;54;20250;-70
2023/02/13 05:55:05;;;;;;;11.13;9.80;;;7.60;99.90;;;;;;2615206;54;20644;-71
2023/02/13 06:00:59;;;;;;;11.10;9.97;;;7.60;99.90;;;;;;2615118;54;20387;-72
2023/02/13 06:06:46;;;;;;;11.57;10.10;;;7.50;99.90;;;;;;2615114;54;20379;-71
2023/02/13 06:16:33;;;;;;;13.30;10.83;;;7.40;99.90;;;;;;2615162;54;20422;-71
2023/02/13 06:22:21;;;;;;;13.03;11.07;;;7.00;99.90;;;;;;2615144;54;20407;-70
2023/02/13 06:28:09;;;;;;;18.67;11.40;;;6.70;99.90;;;;;;2615130;54;20153;-70
2023/02/13 06:33:56;;;;;;;15.80;11.20;;;6.40;99.90;;;;;;2615106;54;20592;-71
2023/02/13 06:39:44;;;;;;;15.40;10.90;;;6.10;99.90;;;;;;2614895;54;20181;-71
2023/02/13 06:45:32;;;;;;;15.90;11.30;;;5.80;99.90;;;;;;2615157;54;20258;-71
2023/02/13 06:51:20;;;;;;;15.53;10.97;;;5.50;99.90;;;;;;2615174;54;20122;-71
2023/02/13 06:57:08;;;;;;;16.33;12.00;;;5.40;99.90;;;;;;2615145;54;20138;-70
2023/02/13 07:09:12;;;;;;;27.17;16.13;;;5.00;99.90;;;;;;2615123;54;20363;-70
2023/02/13 07:12:05;;;;;;;19.97;13.90;;;5.00;99.90;;;;;;2614188;54;20394;-71
2023/02/13 07:14:31;;;;;;;21.20;13.73;;;5.00;99.90;;;;;;2615231;39;20804;-70
2023/02/13 07:20:19;;;;;;;18.87;13.03;;;5.00;99.90;;;;;;2615328;54;20301;-71
2023/02/13 07:26:06;;;;;;;18.63;12.77;;;5.10;99.90;;;;;;2614681;54;20146;-71
2023/02/13 07:29:10;;;;;;;18.27;13.30;;;5.20;99.90;;;;;;2614250;54;20395;-70
2023/02/13 07:31:35;;;;;;;20.17;12.67;;;5.40;99.90;;;;;;2614522;54;20174;-71
2023/02/13 07:37:23;;;;;;;19.40;13.20;;;6.20;99.90;;;;;;2615177;39;20537;-71
2023/02/13 07:43:12;;;;;;;18.03;11.87;;;8.70;99.90;;;;;;2614866;54;20146;-72
2023/02/13 07:49:00;;;;;;;16.37;14.37;;;10.00;99.90;;;;;;2614771;54;20390;-70
2023/02/13 07:54:48;;;;;;;15.80;14.30;;;10.90;99.90;;;;;;2614504;54;20155;-72
2023/02/13 08:00:35;;;;;;;14.80;12.93;;;11.10;99.90;;;;;;2614523;54;20391;-72
2023/02/13 08:06:23;;;;;;;14.63;13.27;;;12.10;94.10;;;;;;2614447;54;20133;-71
2023/02/13 08:18:55;;;;;;;15.80;14.30;;;12.90;75.30;;;;;;2615511;54;20363;-72
2023/02/13 08:24:43;;;;;;;16.80;15.43;;;13.80;52.80;;;;;;2615255;54;20127;-71
2023/02/13 08:30:31;;;;;;;16.30;15.10;;;13.80;56.00;;;;;;2615431;54;20146;-71
2023/02/13 08:36:19;;;;;;;17.03;15.73;;;14.10;43.60;;;;;;2615278;54;20134;-71
2023/02/13 08:42:07;;;;;;;18.20;16.77;;;14.80;32.60;;;;;;2615591;39;20786;-71
2023/02/13 08:47:56;;;;;;;16.97;15.70;;;14.60;27.90;;;;;;2615373;54;20126;-71
2023/02/13 08:53:44;;;;;;;16.50;15.40;;;15.50;23.00;;;;;;2615058;54;20413;-71
2023/02/13 08:59:32;;;;;;;18.20;16.80;;;15.40;21.20;;;;;;2615226;54;20146;-70
2023/02/13 09:05:20;;;;;;;17.83;16.63;;;15.20;14.60;;;;;;2615198;54;20266;-70
2023/02/13 09:11:09;;;;;;;16.67;15.57;;;16.40;15.00;;;;;;2615313;54;20411;-71
2023/02/13 09:16:56;;;;;;;17.40;16.10;;;17.30;9.20;;;;;;2614915;54;20426;-71
2023/02/13 09:20:21;;;;;;;18.90;17.60;;;16.70;7.60;;;;;;2614338;54;20491;-71
2023/02/13 09:26:11;;;;;;;17.70;16.50;;;16.20;9.20;;;;;;2615596;54;20383;-70
2023/02/13 09:31:59;;;;;;;18.07;16.80;;;17.00;7.60;;;;;;2615265;39;20781;-71
2023/02/13 09:37:47;;;;;;;18.23;16.93;;;17.30;8.40;;;;;;2614992;54;20154;-71
2023/02/13 09:43:51;;;;;;;17.87;16.47;;;17.90;3.00;;;;;;2614995;54;20395;-71
2023/02/13 09:49:45;;;;;;;19.00;17.30;;;18.10;3.60;;;;;;2615272;54;21108;-71
2023/02/13 10:09:03;;;;;;;18.47;17.37;;;18.20;1.00;;;;;;2613401;54;20981;-71
2023/02/13 10:21:13;;;;;;;18.50;17.30;;;18.30;1.00;;;;;;2613417;54;20422;-71
2023/02/13 10:34:25;;;;;;;18.30;17.20;;;20.80;1.00;;;;;;2613485;39;20766;-72
2023/02/13 10:40:12;;;;;;;17.93;16.73;;;20.50;1.00;;;;;;2613615;54;20403;-71
2023/02/13 10:50:33;;;;;;;18.97;17.67;;;19.10;1.00;;;;;;2613523;54;20355;-71
2023/02/13 10:56:33;;;;;;;17.57;16.27;;;19.30;1.00;;;;;;2613423;54;20441;-71
2023/02/13 11:02:35;;;;;;;17.70;16.70;;;20.60;1.00;;;;;;2613099;54;20391;-72
2023/02/13 11:08:32;;;;;;;18.43;17.10;;;20.30;1.00;;;;;;2613356;54;20447;-70
2023/02/13 11:14:20;;;;;;;19.07;17.87;;;20.30;1.00;;;;;;2613157;54;20387;-72
2023/02/13 11:30:22;;;;;;;18.97;17.50;;;21.40;1.00;;;;;;2614526;54;20375;-72
2023/02/13 11:36:15;;;;;;;17.93;16.73;;;21.40;1.00;;;;;;2614933;39;20544;-71
2023/02/13 11:48:22;;;;;;;18.43;17.23;;;21.80;1.00;;;;;;2615435;54;20520;-71
2023/02/13 11:54:27;;;;;;;19.00;17.80;;;22.50;1.00;;;;;;2615121;54;20350;-72
2023/02/13 12:00:36;;;;;;;18.70;17.50;;;20.60;1.00;;;;;;2615374;54;20379;-71
2023/02/13 12:06:24;;;;;;;17.80;16.60;;;21.50;1.00;;;;;;2615693;46;20374;-71
2023/02/13 12:18:38;;;;;;;17.97;16.83;;;22.80;1.00;;;;;;2615496;54;20355;-71
2023/02/13 12:24:29;;;;;;;18.47;17.27;;;21.00;1.00;;;;;;2615328;39;20833;-71
2023/02/13 12:27:41;;;;;;;17.77;16.70;;;22.00;1.00;;;;;;2614522;54;21018;-71
2023/02/13 12:33:57;;;;;;;20.17;18.50;;;20.80;1.00;;;;;;2615270;54;20390;-71
2023/02/13 12:46:43;;;;;;;18.87;17.67;;;22.90;1.00;;;;;;2613870;54;20351;-72
2023/02/13 12:59:12;;;;;;;18.60;17.27;;;20.90;1.00;;;;;;2613640;54;20355;-72
2023/02/13 13:05:21;;;;;;;18.80;17.40;;;22.90;1.00;;;;;;2613917;54;20389;-71
2023/02/13 13:34:04;;;;;;;18.67;17.30;;;23.30;1.00;;;;;;2614944;54;20402;-71
2023/02/13 13:46:18;;;;;;;18.33;17.00;;;22.10;1.00;;;;;;2614949;54;20371;-71
2023/02/13 13:58:43;;;;;;;17.00;15.90;;;22.40;1.00;;;;;;2615173;54;20363;-71
2023/02/13 14:04:42;;;;;;;18.53;17.13;;;21.90;1.00;;;;;;2615270;39;20743;-70
2023/02/13 14:10:29;;;;;;;18.07;16.67;;;23.10;1.00;;;;;;2614858;54;21033;-70
2023/02/13 14:16:38;;;;;;;17.50;16.50;;;22.10;1.00;;;;;;2614943;54;20182;-71
2023/02/13 14:38:43;;;;;;;17.20;16.00;;;22.10;1.00;;;;;;2617502;46;20420;-71
2023/02/13 14:44:36;;;;;;;15.63;14.57;;;22.20;1.00;;;;;;2619021;54;20153;-71
2023/02/13 14:57:05;;;;;;;17.17;16.03;;;20.10;1.00;;;;;;2619178;54;20378;-70
2023/02/13 15:02:58;;;;;;;16.43;15.40;;;21.40;1.00;;;;;;2619164;38;21053;-69
2023/02/13 15:08:50;;;;;;;17.23;16.13;;;21.20;1.00;;;;;;2619316;38;20792;-71
2023/02/13 15:14:37;;;;;;;18.43;17.23;;;21.80;1.00;;;;;;2619101;38;20775;-70
2023/02/13 15:20:34;;;;;;;16.63;15.63;;;20.70;1.00;;;;;;2619089;54;20118;-71
2023/02/13 15:26:26;;;;;;;17.97;16.20;;;20.70;1.00;;;;;;2618567;54;20447;-71
2023/02/13 15:32:19;;;;;;;17.07;16.00;;;19.90;1.00;;;;;;2618851;54;20386;-71
2023/02/13 15:51:04;;;;;;;18.43;17.17;;;17.00;1.00;;;;;;2615558;39;20796;-71
2023/02/13 15:56:55;;;;;;;17.33;16.20;;;16.20;1.70;;;;;;2615114;54;20419;-71
2023/02/13 16:02:46;;;;;;;17.93;16.60;;;15.90;6.00;;;;;;2614935;54;20411;-70
2023/02/13 16:08:42;;;;;;;18.27;16.03;;;14.50;12.80;;;;;;2615152;47;20475;-71
2023/02/13 16:20:54;;;;;;;16.77;15.77;;;13.10;36.70;;;;;;2615241;54;20370;-70
2023/02/13 16:36:58;;;;;;;15.97;14.77;;;12.10;69.80;;;;;;2613663;54;20382;-71
2023/02/13 16:42:45;;;;;;;16.23;14.73;;;11.90;81.30;;;;;;2613907;39;20536;-71
2023/02/13 16:48:32;;;;;;;18.83;17.20;;;11.70;91.70;;;;;;2614222;39;20530;-70
2023/02/13 16:54:33;;;;;;;17.53;16.20;;;11.60;96.30;;;;;;2613606;54;20171;-71
2023/02/13 17:00:23;;;;;;;16.30;15.00;;;11.20;99.90;;;;;;2613603;54;20422;-71
2023/02/13 17:06:10;;;;;;;15.93;14.70;;;11.10;99.90;;;;;;2613966;54;20496;-72
2023/02/13 17:11:57;;;;;;;16.47;15.07;;;10.80;99.90;;;;;;2615137;54;20146;-70
2023/02/13 17:17:46;;;;;;;17.50;15.80;;;10.60;99.90;;;;;;2615812;39;20513;-71
2023/02/13 17:23:33;;;;;;;16.40;14.90;;;10.30;99.90;;;;;;2615425;39;20765;-72
2023/02/13 17:26:20;;;;;;;16.97;15.13;;;10.10;99.90;;;;;;2614583;46;20412;-70
2023/02/13 17:28:45;;;;;;;16.63;14.70;;;10.00;99.90;;;;;;2614900;54;20162;-70
2023/02/13 17:34:33;;;;;;;16.77;14.97;;;9.90;99.90;;;;;;2615646;39;20622;-72
2023/02/13 17:40:24;;;;;;;14.80;13.30;;;9.70;99.90;;;;;;2615160;54;20219;-71
2023/02/13 17:46:11;;;;;;;15.53;14.03;;;9.50;99.90;;;;;;2615089;54;20359;-69
2023/02/13 17:51:59;;;;;;;14.97;12.87;;;9.30;99.90;;;;;;2615303;54;20114;-71
2023/02/13 17:57:47;;;;;;;13.90;12.70;;;8.80;99.90;;;;;;2615567;39;20533;-71
2023/02/13 18:03:35;;;;;;;16.63;14.43;;;8.40;99.90;;;;;;2615099;46;20391;-71
2023/02/13 18:09:23;;;;;;;16.57;14.93;;;8.30;99.90;;;;;;2614960;54;20150;-70
2023/02/13 18:15:12;;;;;;;15.70;14.10;;;8.10;99.90;;;;;;2615040;54;21104;-70
2023/02/13 18:20:59;;;;;;;14.93;13.33;;;7.80;99.90;;;;;;2615117;54;20431;-69
2023/02/13 18:30:53;;;;;;;18.07;14.37;;;7.70;99.90;;;;;;2615008;54;20900;-70
2023/02/13 18:36:40;;;;;;;16.60;12.90;;;7.40;99.90;;;;;;2614995;54;20394;-71
2023/02/13 18:42:28;;;;;;;15.90;13.57;;;7.30;99.90;;;;;;2614544;54;20146;-70
2023/02/13 18:48:16;;;;;;;14.00;12.47;;;7.10;99.90;;;;;;2614529;54;20122;-70
2023/02/13 18:54:04;;;;;;;15.03;13.43;;;6.90;99.90;;;;;;2614589;54;20130;-71
2023/02/13 18:59:52;;;;;;;14.60;12.07;;;6.70;99.90;;;;;;2614644;54;20369;-72
2023/02/13 19:05:40;;;;;;;13.67;11.73;;;6.50;99.90;;;;;;2614895;54;20110;-70
2023/02/13 19:11:29;;;;;;;18.00;13.70;;;6.40;99.90;;;;;;2614633;54;20512;-70
2023/02/13 19:17:17;;;;;;;21.83;15.33;;;6.40;99.90;;;;;;2615583;54;20401;-71
2023/02/13 19:23:04;;;;;;;22.03;15.90;;;6.40;99.90;;;;;;2615827;46;20149;-71
2023/02/13 19:26:22;;;;;;;17.27;14.53;;;6.40;99.90;;;;;;2615572;54;20380;-71
2023/02/13 19:28:49;;;;;;;16.83;14.37;;;6.30;99.90;;;;;;2615374;54;20154;-70
2023/02/13 19:34:37;;;;;;;17.03;13.77;;;6.10;99.90;;;;;;2615430;54;20361;-71
2023/02/13 19:40:24;;;;;;;22.50;15.87;;;6.10;99.90;;;;;;2615608;54;20492;-71
2023/02/13 19:46:12;;;;;;;17.00;14.90;;;5.90;99.90;;;;;;2615645;54;20138;-74
2023/02/13 19:52:02;;;;;;;19.60;15.40;;;5.70;99.90;;;;;;2615967;31;20902;-72
2023/02/13 19:57:49;;;;;;;19.50;15.60;;;5.60;99.90;;;;;;2616128;39;20775;-71
2023/02/13 20:03:37;;;;;;;17.93;16.13;;;5.50;99.90;;;;;;2615592;54;20178;-71
2023/02/13 20:09:25;;;;;;;25.07;17.03;;;5.30;99.90;;;;;;2615635;54;20452;-72
2023/02/13 20:15:12;;;;;;;23.33;17.67;;;5.10;99.90;;;;;;2615505;54;20652;-71
2023/02/13 20:21:06;;;;;;;22.93;16.77;;;5.10;99.90;;;;;;2615661;39;20517;-71
2023/02/13 20:30:53;;;;;;;20.57;16.70;;;4.80;99.90;;;;;;2615274;54;20370;-69
2023/02/13 20:36:41;;;;;;;24.47;17.87;;;4.70;99.90;;;;;;2616067;39;20763;-71
2023/02/13 20:42:32;;;;;;;21.83;16.27;;;4.60;99.90;;;;;;2615208;54;20141;-70
2023/02/13 20:48:20;;;;;;;19.60;16.17;;;4.60;99.90;;;;;;2615435;54;20378;-70
2023/02/13 20:54:09;;;;;;;21.30;17.60;;;4.40;99.90;;;;;;2615288;54;20126;-70
2023/02/13 20:59:56;;;;;;;26.03;18.20;;;4.30;99.90;;;;;;2615205;54;20399;-72
2023/02/13 21:05:44;;;;;;;24.37;18.37;;;4.20;99.90;;;;;;2615243;54;20111;-71
2023/02/13 21:11:33;;;;;;;31.80;18.53;;;4.10;99.90;;;;;;2615239;54;20134;-70
2023/02/13 21:17:21;;;;;;;20.87;16.30;;;4.10;99.90;;;;;;2615158;54;20426;-71
2023/02/13 21:23:08;;;;;;;20.20;18.10;;;4.00;99.90;;;;;;2615274;54;20118;-71
2023/02/13 21:26:22;;;;;;;24.17;19.00;;;3.90;99.90;;;;;;2615016;54;20408;-70
2023/02/13 21:28:49;;;;;;;24.17;20.30;;;3.80;99.90;;;;;;2615046;54;20139;-72
2023/02/13 21:34:37;;;;;;;27.40;19.70;;;3.70;99.90;;;;;;2615266;54;20346;-72
2023/02/13 21:40:24;;;;;;;24.60;19.10;;;3.70;99.90;;;;;;2615043;54;20135;-71
2023/02/13 21:46:13;;;;;;;22.00;19.10;;;3.60;99.90;;;;;;2614884;54;20247;-71
2023/02/13 21:52:01;;;;;;;24.90;20.00;;;3.40;99.90;;;;;;2614898;54;20524;-70
2023/02/13 21:57:49;;;;;;;22.93;17.23;;;3.30;99.90;;;;;;2615085;54;20126;-71
2023/02/13 22:03:36;;;;;;;26.27;18.70;;;3.20;99.90;;;;;;2614964;54;20175;-69
2023/02/13 22:09:26;;;;;;;23.93;19.00;;;3.20;99.90;;;;;;2614877;54;20131;-71
2023/02/13 22:15:14;;;;;;;29.63;18.83;;;3.40;99.90;;;;;;2614948;54;20391;-70
2023/02/13 22:21:17;;;;;;;25.27;18.73;;;3.60;99.90;;;;;;2614988;54;20126;-72
2023/02/13 22:30:55;;;;;;;26.13;18.27;;;3.30;99.90;;;;;;2614958;54;20351;-70
2023/02/13 22:36:42;;;;;;;25.10;18.30;;;3.20;99.90;;;;;;2615285;39;20757;-71
2023/02/13 22:42:30;;;;;;;30.27;18.50;;;3.00;99.90;;;;;;2614696;54;20265;-69
2023/02/13 22:48:18;;;;;;;26.87;19.37;;;2.80;99.90;;;;;;2614820;54;20617;-69
2023/02/13 22:54:06;;;;;;;25.33;20.27;;;2.70;99.90;;;;;;2615532;54;20114;-71
2023/02/13 22:59:54;;;;;;;25.53;19.33;;;2.70;99.90;;;;;;2615537;54;20150;-71
2023/02/13 23:05:41;;;;;;;24.37;19.87;;;2.60;99.90;;;;;;2615830;54;20676;-71
2023/02/13 23:23:42;;;;;;;24.00;19.00;;;2.30;99.90;;;;;;2615406;54;20406;-70
2023/02/13 23:26:23;;;;;;;23.80;20.60;;;2.30;99.90;;;;;;2614955;54;20382;-70
2023/02/13 23:28:48;;;;;;;29.57;19.67;;;2.30;99.90;;;;;;2615478;54;20143;-70
2023/02/13 23:34:36;;;;;;;29.80;21.23;;;2.30;99.90;;;;;;2615301;54;20251;-70
2023/02/13 23:40:24;;;;;;;27.73;20.97;;;2.30;99.90;;;;;;2615775;54;20249;-70
2023/02/13 23:46:11;;;;;;;24.93;19.13;;;2.10;99.90;;;;;;2615635;46;20142;-70
2023/02/13 23:51:59;;;;;;;28.87;19.37;;;2.00;99.90;;;;;;2615823;39;20523;-70
2023/02/13 23:57:50;;;;;;;22.70;20.30;;;2.00;99.90;;;;;;2615653;54;20158;-71
